createdAt,value
2018-02-03T00:00:00.766Z,4.01
2018-02-03T00:02:28.281Z,4.05
2018-02-03T00:04:55.792Z,4.08
2018-02-03T00:07:23.311Z,4.06
2018-02-03T00:09:50.828Z,4.06
2018-02-03T00:12:18.342Z,4.10
2018-02-03T00:14:45.913Z,4.14
2018-02-03T00:17:13.693Z,4.14
2018-02-03T00:19:41.641Z,4.14
2018-02-03T00:22:09.172Z,4.19
2018-02-03T00:24:36.682Z,4.15
2018-02-03T00:27:05.577Z,4.14
2018-02-03T00:29:33.109Z,4.16
2018-02-03T00:32:01.937Z,4.09
2018-02-03T00:34:32.235Z,4.05
2018-02-03T00:37:01.205Z,3.99
2018-02-03T00:39:28.738Z,3.74
2018-02-03T00:41:58.054Z,3.74
2018-02-03T00:44:25.584Z,3.76
2018-02-03T00:46:53.101Z,3.80
2018-02-03T00:49:21.167Z,3.77
2018-02-03T00:51:48.705Z,3.80
2018-02-03T00:54:16.214Z,3.66
2018-02-03T00:56:45.054Z,3.78
2018-02-03T00:59:13.386Z,3.78
2018-02-03T01:01:41.596Z,3.70
2018-02-03T01:04:09.665Z,3.69
2018-02-03T01:06:37.177Z,3.72
2018-02-03T01:09:04.693Z,3.73
2018-02-03T01:11:34.829Z,3.79
2018-02-03T01:14:03.807Z,3.80
2018-02-03T01:16:32.112Z,3.81
2018-02-03T01:19:01.340Z,3.77
2018-02-03T01:21:30.383Z,3.86
2018-02-03T01:23:57.897Z,3.84
2018-02-03T01:26:27.588Z,3.84
2018-02-03T01:28:55.107Z,3.86
2018-02-03T01:31:22.624Z,3.85
2018-02-03T01:33:50.137Z,3.82
2018-02-03T01:36:17.656Z,3.76
2018-02-03T01:38:45.179Z,3.85
2018-02-03T01:41:12.697Z,3.90
2018-02-03T01:43:40.228Z,3.92
2018-02-03T01:46:07.746Z,3.92
2018-02-03T01:48:35.260Z,3.88
2018-02-03T01:51:02.778Z,3.93
2018-02-03T01:53:30.287Z,3.96
2018-02-03T01:55:57.796Z,4.04
2018-02-03T01:58:25.312Z,3.92
2018-02-03T02:00:52.824Z,3.99
2018-02-03T02:03:20.343Z,3.96
2018-02-03T02:05:47.866Z,4.01
2018-02-03T02:08:15.395Z,4.00
2018-02-03T02:10:42.905Z,4.04
2018-02-03T02:13:10.424Z,4.00
2018-02-03T02:15:37.933Z,4.00
2018-02-03T02:18:05.457Z,4.04
2018-02-03T02:20:32.977Z,4.09
2018-02-03T02:23:00.488Z,4.09
2018-02-03T02:25:28.009Z,4.12
2018-02-03T02:27:55.521Z,4.13
2018-02-03T02:30:23.036Z,4.08
2018-02-03T02:32:50.549Z,3.99
2018-02-03T02:35:18.074Z,4.12
2018-02-03T02:37:45.592Z,4.16
2018-02-03T02:40:13.114Z,4.11
2018-02-03T02:42:40.634Z,4.10
2018-02-03T02:45:08.164Z,4.14
2018-02-03T02:47:35.694Z,4.17
2018-02-03T02:50:03.213Z,4.10
2018-02-03T02:52:30.725Z,4.13
2018-02-03T02:54:58.241Z,4.15
2018-02-03T02:57:25.769Z,4.18
2018-02-03T02:59:53.294Z,4.11
2018-02-03T03:02:20.817Z,4.13
2018-02-03T03:04:48.338Z,4.17
2018-02-03T03:07:15.872Z,4.12
2018-02-03T03:09:43.505Z,4.14
2018-02-03T03:12:11.026Z,4.16
2018-02-03T03:14:38.544Z,4.17
2018-02-03T03:17:06.078Z,4.18
2018-02-03T03:19:33.613Z,4.11
2018-02-03T03:22:01.130Z,4.17
2018-02-03T03:24:28.659Z,4.14
2018-02-03T03:26:56.178Z,4.11
2018-02-03T03:29:23.696Z,4.18
2018-02-03T03:31:51.217Z,4.19
2018-02-03T03:34:18.730Z,4.17
2018-02-03T03:36:46.248Z,4.19
2018-02-03T03:39:13.765Z,4.15
2018-02-03T03:41:41.305Z,4.12
2018-02-03T03:44:08.831Z,4.12
2018-02-03T03:46:36.351Z,4.14
2018-02-03T03:49:03.869Z,4.14
2018-02-03T03:51:31.380Z,4.12
2018-02-03T03:53:58.898Z,4.16
2018-02-03T03:56:26.530Z,4.19
2018-02-03T03:58:54.054Z,4.19
2018-02-03T04:01:21.577Z,4.27
2018-02-03T04:03:49.102Z,4.19
2018-02-03T04:06:16.623Z,4.11
2018-02-03T04:08:44.146Z,4.16
2018-02-03T04:11:11.670Z,4.14
2018-02-03T04:13:39.190Z,4.19
2018-02-03T04:16:06.710Z,4.18
2018-02-03T04:18:34.233Z,4.18
2018-02-03T04:21:01.749Z,4.21
2018-02-03T04:23:29.263Z,4.19
2018-02-03T04:25:56.778Z,4.06
2018-02-03T04:28:24.299Z,4.03
2018-02-03T04:30:51.814Z,3.85
2018-02-03T04:33:19.329Z,3.79
2018-02-03T04:35:46.844Z,3.69
2018-02-03T04:38:14.358Z,3.61
2018-02-03T04:40:41.873Z,3.57
2018-02-03T04:43:09.380Z,3.70
2018-02-03T04:45:36.894Z,3.65
2018-02-03T04:48:04.404Z,3.56
2018-02-03T04:50:31.916Z,3.64
2018-02-03T04:52:59.425Z,3.54
2018-02-03T04:55:26.942Z,3.59
2018-02-03T04:57:54.458Z,3.57
2018-02-03T05:00:21.986Z,3.60
2018-02-03T05:02:49.504Z,3.61
2018-02-03T05:05:17.026Z,3.60
2018-02-03T05:07:44.542Z,3.65
2018-02-03T05:10:12.067Z,3.58
2018-02-03T05:12:39.590Z,3.54
2018-02-03T05:15:07.108Z,3.61
2018-02-03T05:17:34.621Z,3.61
2018-02-03T05:20:02.142Z,3.66
2018-02-03T05:22:29.682Z,3.63
2018-02-03T05:24:57.193Z,3.58
2018-02-03T05:27:24.713Z,3.56
2018-02-03T05:29:52.230Z,3.56
2018-02-03T05:32:19.747Z,3.55
2018-02-03T05:34:47.264Z,3.58
2018-02-03T05:37:14.811Z,3.64
2018-02-03T05:39:42.336Z,3.65
2018-02-03T05:42:09.856Z,3.69
2018-02-03T05:44:38.148Z,3.66
2018-02-03T05:47:05.665Z,3.69
2018-02-03T05:49:33.195Z,3.66
2018-02-03T05:52:00.723Z,3.73
2018-02-03T05:54:28.240Z,3.75
2018-02-03T05:56:55.757Z,3.65
2018-02-03T05:59:23.268Z,3.76
2018-02-03T06:01:50.789Z,3.67
2018-02-03T06:04:18.300Z,3.73
2018-02-03T06:06:45.810Z,3.69
2018-02-03T06:09:13.333Z,3.65
2018-02-03T06:11:40.852Z,3.63
2018-02-03T06:14:08.371Z,3.72
2018-02-03T06:16:35.891Z,3.74
2018-02-03T06:19:03.401Z,3.68
2018-02-03T06:21:30.906Z,3.65
2018-02-03T06:23:58.416Z,3.63
2018-02-03T06:26:25.933Z,3.72
2018-02-03T06:28:53.449Z,3.68
2018-02-03T06:31:20.948Z,3.61
2018-02-03T06:33:48.463Z,3.63
2018-02-03T06:36:15.974Z,3.66
2018-02-03T06:38:43.491Z,3.83
2018-02-03T06:41:11.003Z,3.94
2018-02-03T06:43:38.524Z,4.08
2018-02-03T06:46:06.044Z,3.81
2018-02-03T06:48:33.559Z,3.85
2018-02-03T06:51:01.069Z,3.92
2018-02-03T06:53:28.598Z,3.98
2018-02-03T06:55:56.125Z,3.90
2018-02-03T06:58:23.641Z,3.80
2018-02-03T07:00:51.153Z,3.80
2018-02-03T07:03:18.674Z,3.76
2018-02-03T07:05:46.197Z,3.77
2018-02-03T07:08:13.721Z,3.73
2018-02-03T07:10:41.237Z,3.67
2018-02-03T07:13:08.759Z,3.66
2018-02-03T07:15:36.280Z,3.56
2018-02-03T07:18:03.806Z,3.58
2018-02-03T07:20:31.320Z,3.63
2018-02-03T07:22:58.839Z,3.71
2018-02-03T07:25:26.355Z,3.81
2018-02-03T07:27:53.869Z,3.69
2018-02-03T07:30:21.385Z,3.73
2018-02-03T07:32:48.919Z,3.63
2018-02-03T07:35:16.436Z,3.74
2018-02-03T07:37:43.958Z,3.80
2018-02-03T07:40:11.489Z,3.86
2018-02-03T07:42:39.012Z,3.84
2018-02-03T07:45:06.524Z,3.93
2018-02-03T07:47:34.046Z,3.88
2018-02-03T07:50:01.567Z,3.91
2018-02-03T07:52:29.102Z,3.90
2018-02-03T07:54:56.613Z,3.89
2018-02-03T07:57:24.130Z,3.86
2018-02-03T07:59:51.657Z,4.01
2018-02-03T08:02:19.178Z,4.09
2018-02-03T08:04:46.696Z,4.16
2018-02-03T08:07:14.210Z,4.11
2018-02-03T08:09:41.716Z,3.95
2018-02-03T08:12:09.256Z,3.93
2018-02-03T08:14:36.788Z,4.01
2018-02-03T08:17:04.414Z,4.06
2018-02-03T08:19:31.923Z,3.95
2018-02-03T08:21:59.453Z,3.88
2018-02-03T08:24:26.974Z,3.82
2018-02-03T08:26:54.501Z,3.65
2018-02-03T08:29:22.018Z,3.73
2018-02-03T08:31:49.537Z,3.58
2018-02-03T08:34:17.053Z,3.61
2018-02-03T08:36:44.575Z,3.45
2018-02-03T08:39:12.088Z,3.34
2018-02-03T08:41:39.603Z,3.28
2018-02-03T08:44:07.116Z,3.32
2018-02-03T08:46:34.630Z,3.35
2018-02-03T08:49:02.150Z,3.29
2018-02-03T08:51:29.661Z,3.26
2018-02-03T08:53:57.173Z,3.38
2018-02-03T08:56:24.695Z,3.41
2018-02-03T08:58:52.197Z,3.40
2018-02-03T09:01:19.705Z,3.30
2018-02-03T09:03:47.230Z,3.26
2018-02-03T09:06:14.749Z,3.40
2018-02-03T09:08:42.276Z,3.46
2018-02-03T09:11:09.781Z,3.36
2018-02-03T09:13:37.293Z,3.44
2018-02-03T09:16:04.801Z,3.39
2018-02-03T09:18:32.310Z,3.45
2018-02-03T09:20:59.818Z,3.23
2018-02-03T09:23:27.339Z,3.11
2018-02-03T09:25:54.860Z,3.15
2018-02-03T09:28:22.390Z,3.11
2018-02-03T09:30:49.905Z,3.18
2018-02-03T09:33:17.422Z,3.26
2018-02-03T09:35:44.933Z,3.28
2018-02-03T09:38:12.458Z,3.39
2018-02-03T09:40:39.965Z,3.39
2018-02-03T09:43:07.476Z,3.36
2018-02-03T09:45:35.009Z,3.26
2018-02-03T09:48:02.525Z,3.18
2018-02-03T09:50:30.039Z,3.13
2018-02-03T09:52:57.550Z,3.10
2018-02-03T09:55:25.059Z,3.13
2018-02-03T09:57:52.570Z,3.13
2018-02-03T10:00:20.089Z,3.09
2018-02-03T10:02:47.615Z,3.18
2018-02-03T10:05:15.137Z,3.02
2018-02-03T10:07:42.662Z,3.10
2018-02-03T10:10:10.194Z,3.12
2018-02-03T10:12:37.709Z,3.08
2018-02-03T10:15:05.226Z,2.90
2018-02-03T10:17:32.746Z,2.86
2018-02-03T10:20:00.256Z,2.86
2018-02-03T10:22:27.761Z,2.98
2018-02-03T10:24:55.259Z,2.90
2018-02-03T10:27:22.775Z,2.88
2018-02-03T10:29:50.293Z,2.94
2018-02-03T10:32:17.804Z,2.96
2018-02-03T10:34:45.319Z,3.02
2018-02-03T10:37:12.832Z,2.92
2018-02-03T10:39:40.333Z,2.98
2018-02-03T10:42:07.867Z,3.10
2018-02-03T10:44:35.385Z,2.94
2018-02-03T10:47:02.905Z,2.94
2018-02-03T10:49:30.426Z,3.13
2018-02-03T10:51:57.935Z,3.09
2018-02-03T10:54:25.453Z,3.29
2018-02-03T10:56:52.969Z,3.07
2018-02-03T10:59:20.492Z,3.04
2018-02-03T11:01:48.009Z,3.06
2018-02-03T11:04:15.525Z,3.13
2018-02-03T11:06:43.041Z,3.05
2018-02-03T11:09:10.556Z,3.04
2018-02-03T11:11:38.077Z,3.09
2018-02-03T11:14:05.596Z,3.14
2018-02-03T11:16:33.121Z,3.07
2018-02-03T11:19:00.633Z,3.15
2018-02-03T11:21:28.165Z,3.08
2018-02-03T11:23:55.681Z,3.07
2018-02-03T11:26:23.188Z,3.03
2018-02-03T11:28:50.700Z,3.00
2018-02-03T11:31:18.212Z,2.94
2018-02-03T11:33:45.734Z,2.95
2018-02-03T11:36:13.257Z,2.99
2018-02-03T11:38:40.775Z,3.05
2018-02-03T11:41:08.293Z,3.16
2018-02-03T11:43:35.809Z,3.11
2018-02-03T11:46:03.327Z,3.11
2018-02-03T11:48:30.840Z,3.12
2018-02-03T11:50:58.371Z,3.17
2018-02-03T11:53:25.885Z,3.05
2018-02-03T11:55:53.389Z,3.10
2018-02-03T11:58:20.893Z,3.20
2018-02-03T12:00:48.412Z,3.10
2018-02-03T12:03:15.925Z,3.23
2018-02-03T12:05:43.448Z,3.23
2018-02-03T12:08:10.962Z,3.15
2018-02-03T12:10:38.475Z,3.23
2018-02-03T12:13:06.005Z,3.15
2018-02-03T12:15:33.516Z,3.30
2018-02-03T12:18:01.033Z,3.39
2018-02-03T12:20:28.548Z,3.49
2018-02-03T12:22:56.060Z,3.28
2018-02-03T12:25:23.569Z,3.35
2018-02-03T12:27:51.089Z,3.17
2018-02-03T12:30:18.632Z,3.16
2018-02-03T12:32:46.148Z,3.31
2018-02-03T12:35:14.471Z,3.21
2018-02-03T12:37:41.984Z,3.31
2018-02-03T12:40:09.501Z,3.33
2018-02-03T12:42:37.035Z,3.44
2018-02-03T12:45:04.568Z,3.28
2018-02-03T12:47:32.083Z,3.25
2018-02-03T12:49:59.602Z,3.23
2018-02-03T12:52:27.121Z,3.17
2018-02-03T12:54:54.642Z,3.14
2018-02-03T12:57:22.162Z,3.20
2018-02-03T12:59:49.685Z,3.15
2018-02-03T13:02:17.199Z,3.09
2018-02-03T13:04:44.715Z,3.04
2018-02-03T13:07:12.244Z,3.05
2018-02-03T13:09:39.762Z,2.97
2018-02-03T13:12:07.320Z,2.96
2018-02-03T13:14:34.842Z,3.09
2018-02-03T13:17:02.354Z,3.14
2018-02-03T13:19:29.857Z,3.08
2018-02-03T13:22:05.151Z,3.08
2018-02-03T13:24:33.389Z,3.01
2018-02-03T13:27:00.910Z,3.03
2018-02-03T13:29:28.424Z,3.08
2018-02-03T13:31:55.954Z,3.00
2018-02-03T13:34:23.479Z,3.11
2018-02-03T13:36:50.989Z,3.10
2018-02-03T13:39:18.499Z,2.98
2018-02-03T13:41:46.010Z,2.95
2018-02-03T13:44:13.522Z,3.09
2018-02-03T13:46:41.040Z,3.01
2018-02-03T13:49:08.565Z,3.00
2018-02-03T13:51:36.084Z,2.90
2018-02-03T13:54:03.596Z,2.83
2018-02-03T13:56:31.108Z,2.77
2018-02-03T13:58:58.621Z,2.83
2018-02-03T14:01:26.141Z,2.70
2018-02-03T14:03:53.653Z,2.69
2018-02-03T14:06:21.180Z,2.70
2018-02-03T14:08:48.708Z,2.63
2018-02-03T14:11:16.242Z,2.75
2018-02-03T14:13:43.758Z,2.54
2018-02-03T14:16:11.281Z,2.47
2018-02-03T14:18:38.792Z,2.59
2018-02-03T14:21:06.306Z,2.62
2018-02-03T14:23:33.833Z,2.58
2018-02-03T14:26:07.084Z,2.62
2018-02-03T14:28:34.606Z,2.59
2018-02-03T14:31:02.120Z,2.63
2018-02-03T14:33:29.629Z,2.63
2018-02-03T14:35:57.160Z,2.62
2018-02-03T14:38:24.683Z,2.44
2018-02-03T14:40:52.192Z,2.51
2018-02-03T14:43:19.705Z,2.53
2018-02-03T14:45:47.217Z,2.45
2018-02-03T14:48:14.733Z,2.38
2018-02-03T14:50:42.246Z,2.47
2018-02-03T14:53:09.789Z,2.37
2018-02-03T14:55:37.300Z,2.25
2018-02-03T14:58:04.813Z,2.18
2018-02-03T15:00:32.329Z,2.24
2018-02-03T15:02:59.841Z,2.22
2018-02-03T15:05:27.366Z,2.19
2018-02-03T15:07:54.899Z,2.16
2018-02-03T15:10:22.418Z,2.12
2018-02-03T15:12:49.941Z,2.11
2018-02-03T15:15:17.468Z,2.10
2018-02-03T15:17:44.985Z,2.00
2018-02-03T15:20:12.527Z,1.94
2018-02-03T15:22:40.084Z,1.96
2018-02-03T15:25:07.602Z,1.92
2018-02-03T15:27:35.125Z,1.85
2018-02-03T15:30:02.675Z,1.95
2018-02-03T15:32:30.194Z,1.90
2018-02-03T15:34:57.714Z,1.94
2018-02-03T15:37:25.235Z,1.88
2018-02-03T15:39:52.753Z,1.85
2018-02-03T15:42:20.270Z,1.80
2018-02-03T15:44:47.785Z,1.70
2018-02-03T15:47:15.303Z,1.66
2018-02-03T15:49:42.827Z,1.60
2018-02-03T15:52:10.349Z,1.56
2018-02-03T15:54:37.871Z,1.68
2018-02-03T15:57:05.403Z,1.70
2018-02-03T15:59:32.934Z,1.71
2018-02-03T16:02:00.460Z,1.76
2018-02-03T16:04:27.969Z,1.62
2018-02-03T16:06:55.493Z,1.62
2018-02-03T16:09:23.016Z,1.49
2018-02-03T16:11:50.534Z,1.56
2018-02-03T16:14:18.048Z,1.60
2018-02-03T16:16:45.577Z,1.58
2018-02-03T16:19:13.106Z,1.58
2018-02-03T16:21:40.629Z,1.61
2018-02-03T16:24:08.140Z,1.60
2018-02-03T16:26:35.656Z,1.54
2018-02-03T16:29:03.171Z,1.40
2018-02-03T16:31:30.696Z,1.39
2018-02-03T16:33:58.219Z,1.42
2018-02-03T16:36:25.742Z,1.42
2018-02-03T16:38:53.273Z,1.33
2018-02-03T16:41:20.792Z,1.33
2018-02-03T16:43:48.333Z,1.34
2018-02-03T16:46:15.849Z,1.43
2018-02-03T16:48:43.365Z,1.40
2018-02-03T16:51:10.885Z,1.35
2018-02-03T16:53:38.404Z,1.33
2018-02-03T16:56:05.924Z,1.29
2018-02-03T16:58:33.440Z,1.44
2018-02-03T17:01:00.966Z,1.46
2018-02-03T17:03:28.492Z,1.50
2018-02-03T17:05:56.073Z,1.43
2018-02-03T17:08:23.589Z,1.36
2018-02-03T17:10:51.105Z,1.29
2018-02-03T17:13:18.616Z,1.30
2018-02-03T17:15:46.142Z,1.33
2018-02-03T17:18:13.665Z,1.34
2018-02-03T17:20:41.177Z,1.28
2018-02-03T17:23:08.702Z,1.25
2018-02-03T17:25:36.220Z,1.19
2018-02-03T17:28:03.741Z,1.11
2018-02-03T17:30:31.270Z,1.06
2018-02-03T17:32:58.785Z,1.00
2018-02-03T17:35:26.313Z,0.98
2018-02-03T17:37:59.575Z,0.90
2018-02-03T17:40:27.093Z,0.92
2018-02-03T17:42:54.620Z,0.88
2018-02-03T17:45:27.714Z,0.83
2018-02-03T17:47:55.238Z,0.92
2018-02-03T17:50:22.781Z,0.86
2018-02-03T17:52:50.297Z,0.77
2018-02-03T17:55:23.486Z,0.68
2018-02-03T17:57:51.006Z,0.65
2018-02-03T18:00:18.522Z,0.71
2018-02-03T18:02:46.038Z,0.66
2018-02-03T18:05:13.548Z,0.71
2018-02-03T18:07:41.069Z,0.61
2018-02-03T18:10:08.601Z,0.56
2018-02-03T18:12:36.140Z,0.54
2018-02-03T18:15:03.662Z,0.54
2018-02-03T18:17:31.182Z,0.55
2018-02-03T18:19:58.714Z,0.54
2018-02-03T18:22:26.241Z,0.52
2018-02-03T18:24:53.763Z,0.53
2018-02-03T18:27:21.283Z,0.55
2018-02-03T18:29:48.803Z,0.49
2018-02-03T18:32:16.336Z,0.58
2018-02-03T18:34:43.852Z,0.52
2018-02-03T18:37:11.380Z,0.49
2018-02-03T18:39:38.900Z,0.59
2018-02-03T18:42:06.413Z,0.57
2018-02-03T18:44:33.925Z,0.55
2018-02-03T18:47:01.441Z,0.57
2018-02-03T18:49:28.961Z,0.53
2018-02-03T18:51:56.481Z,0.55
2018-02-03T18:54:23.997Z,0.58
2018-02-03T18:56:51.525Z,0.56
2018-02-03T18:59:19.041Z,0.52
2018-02-03T19:01:46.556Z,0.54
2018-02-03T19:04:14.075Z,0.55
2018-02-03T19:06:41.593Z,0.52
2018-02-03T19:09:09.105Z,0.51
2018-02-03T19:11:36.613Z,0.50
2018-02-03T19:14:04.124Z,0.52
2018-02-03T19:16:31.634Z,0.52
2018-02-03T19:18:59.151Z,0.53
2018-02-03T19:21:26.670Z,0.57
2018-02-03T19:23:54.198Z,0.59
2018-02-03T19:26:21.704Z,0.55
2018-02-03T19:28:49.216Z,0.59
2018-02-03T19:31:16.725Z,0.52
2018-02-03T19:33:44.252Z,0.58
2018-02-03T19:36:11.777Z,0.66
2018-02-03T19:38:39.297Z,0.59
2018-02-03T19:41:06.822Z,0.64
2018-02-03T19:43:34.332Z,0.63
2018-02-03T19:46:01.841Z,0.55
2018-02-03T19:48:29.365Z,0.50
2018-02-03T19:50:56.907Z,0.51
2018-02-03T19:53:24.428Z,0.54
2018-02-03T19:55:51.943Z,0.57
2018-02-03T19:58:19.473Z,0.56
2018-02-03T20:00:46.987Z,0.59
2018-02-03T20:03:14.526Z,0.63
2018-02-03T20:05:42.037Z,0.66
2018-02-03T20:08:09.554Z,0.70
2018-02-03T20:10:37.069Z,0.67
2018-02-03T20:13:04.582Z,0.64
2018-02-03T20:15:32.113Z,0.71
2018-02-03T20:17:59.637Z,0.74
2018-02-03T20:20:27.157Z,0.84
2018-02-03T20:22:54.664Z,0.76
2018-02-03T20:25:22.181Z,0.80
2018-02-03T20:27:49.698Z,0.82
2018-02-03T20:30:17.225Z,0.72
2018-02-03T20:32:44.760Z,0.85
2018-02-03T20:35:12.317Z,0.84
2018-02-03T20:37:39.833Z,0.87
2018-02-03T20:40:07.356Z,0.96
2018-02-03T20:42:34.874Z,0.87
2018-02-03T20:45:02.386Z,0.86
2018-02-03T20:47:29.927Z,0.88
2018-02-03T20:49:57.465Z,0.93
2018-02-03T20:52:25.010Z,0.95
2018-02-03T20:54:52.535Z,0.98
2018-02-03T20:57:20.066Z,1.02
2018-02-03T20:59:47.578Z,1.02
2018-02-03T21:02:15.099Z,1.00
2018-02-03T21:04:42.628Z,0.97
2018-02-03T21:07:10.161Z,0.93
2018-02-03T21:09:37.679Z,0.92
2018-02-03T21:12:05.201Z,1.00
2018-02-03T21:14:32.722Z,1.02
2018-02-03T21:17:00.232Z,0.95
2018-02-03T21:19:27.746Z,0.91
2018-02-03T21:21:55.258Z,0.89
2018-02-03T21:24:22.779Z,0.86
2018-02-03T21:26:50.302Z,0.85
2018-02-03T21:29:17.812Z,0.90
2018-02-03T21:31:45.321Z,0.97
2018-02-03T21:34:12.837Z,0.90
2018-02-03T21:36:40.350Z,0.91
2018-02-03T21:39:07.863Z,0.95
2018-02-03T21:41:35.385Z,0.89
2018-02-03T21:44:02.913Z,0.96
2018-02-03T21:46:30.438Z,0.92
2018-02-03T21:48:57.962Z,0.89
2018-02-03T21:51:25.479Z,0.89
2018-02-03T21:53:52.998Z,0.91
2018-02-03T21:56:20.510Z,0.90
2018-02-03T21:58:48.016Z,0.91
2018-02-03T22:01:15.530Z,0.93
2018-02-03T22:03:43.045Z,0.93
2018-02-03T22:06:10.552Z,0.83
2018-02-03T22:08:38.062Z,0.87
2018-02-03T22:11:05.578Z,0.91
2018-02-03T22:13:33.086Z,0.91
2018-02-03T22:16:00.601Z,0.88
2018-02-03T22:18:28.114Z,0.89
2018-02-03T22:20:55.641Z,0.99
2018-02-03T22:23:23.156Z,0.80
2018-02-03T22:25:50.674Z,0.89
2018-02-03T22:28:18.182Z,0.90
2018-02-03T22:30:45.695Z,0.96
2018-02-03T22:33:13.200Z,0.96
2018-02-03T22:35:40.714Z,1.03
2018-02-03T22:38:08.230Z,1.03
2018-02-03T22:40:35.737Z,0.86
2018-02-03T22:43:03.249Z,0.84
2018-02-03T22:45:30.777Z,0.80
2018-02-03T22:47:58.284Z,0.75
2018-02-03T22:50:25.851Z,0.78
2018-02-03T22:52:53.327Z,0.76
2018-02-03T22:55:20.841Z,0.73
2018-02-03T22:57:48.358Z,0.83
2018-02-03T23:00:16.649Z,0.69
2018-02-03T23:02:49.910Z,0.73
2018-02-03T23:05:17.416Z,0.67
2018-02-03T23:07:44.940Z,0.74
2018-02-03T23:10:12.465Z,0.78
2018-02-03T23:12:39.982Z,0.77
2018-02-03T23:15:07.498Z,0.77
2018-02-03T23:17:35.022Z,0.78
2018-02-03T23:20:02.559Z,0.68
2018-02-03T23:22:30.073Z,0.75
2018-02-03T23:24:57.581Z,0.78
2018-02-03T23:27:25.088Z,0.71
2018-02-03T23:29:52.598Z,0.58
2018-02-03T23:32:20.105Z,0.63
2018-02-03T23:34:47.614Z,0.68
2018-02-03T23:37:15.146Z,0.66
2018-02-03T23:39:42.662Z,0.60
2018-02-03T23:42:10.173Z,0.58
2018-02-03T23:44:37.680Z,0.60
2018-02-03T23:47:05.192Z,0.60
2018-02-03T23:49:32.725Z,0.67
2018-02-03T23:52:00.238Z,0.75
2018-02-03T23:54:27.761Z,0.67
2018-02-03T23:56:55.272Z,0.65
2018-02-03T23:59:22.777Z,0.66
